sensor_id;sensor_type;location;lat;lon;timestamp;pressure;altitude;pressure_sealevel;temperature;humidity
42601;BME280;28229;48.856;9.088;2023-03-03T00:01:11;98161.53;;;0.20;84.62
42601;BME280;28229;48.856;9.088;2023-03-03T00:03:37;98166.97;;;0.17;84.49
42601;BME280;28229;48.856;9.088;2023-03-03T00:06:04;98165.66;;;0.13;84.58
42601;BME280;28229;48.856;9.088;2023-03-03T00:08:32;98158.44;;;0.07;84.86
42601;BME280;28229;48.856;9.088;2023-03-03T00:10:58;98163.25;;;0.02;85.27
42601;BME280;28229;48.856;9.088;2023-03-03T00:13:26;98157.41;;;-0.01;85.34
42601;BME280;28229;48.856;9.088;2023-03-03T00:15:53;98166.13;;;-0.02;85.47
42601;BME280;28229;48.856;9.088;2023-03-03T00:18:32;98164.09;;;-0.08;85.37
42601;BME280;28229;48.856;9.088;2023-03-03T00:21:02;98167.75;;;-0.01;86.67
42601;BME280;28229;48.856;9.088;2023-03-03T00:23:34;98163.41;;;0.00;87.97
42601;BME280;28229;48.856;9.088;2023-03-03T00:26:03;98166.56;;;-0.06;87.11
42601;BME280;28229;48.856;9.088;2023-03-03T00:28:42;98160.56;;;-0.07;88.15
42601;BME280;28229;48.856;9.088;2023-03-03T00:31:28;98166.69;;;-0.08;88.14
42601;BME280;28229;48.856;9.088;2023-03-03T00:34:41;98163.44;;;-0.10;88.25
42601;BME280;28229;48.856;9.088;2023-03-03T00:36:51;98161.72;;;-0.19;87.73
42601;BME280;28229;48.856;9.088;2023-03-03T00:39:34;98168.16;;;-0.23;87.65
42601;BME280;28229;48.856;9.088;2023-03-03T00:42:04;98166.13;;;-0.29;88.17
42601;BME280;28229;48.856;9.088;2023-03-03T00:47:36;98162.06;;;-0.42;88.74
42601;BME280;28229;48.856;9.088;2023-03-03T00:52:40;98158.88;;;-0.63;89.43
42601;BME280;28229;48.856;9.088;2023-03-03T00:55:10;98157.41;;;-0.66;89.70
42601;BME280;28229;48.856;9.088;2023-03-03T00:57:36;98162.41;;;-0.64;89.64
42601;BME280;28229;48.856;9.088;2023-03-03T01:00:06;98165.69;;;-0.62;89.03
42601;BME280;28229;48.856;9.088;2023-03-03T01:02:33;98153.22;;;-0.77;89.55
42601;BME280;28229;48.856;9.088;2023-03-03T01:04:59;98154.81;;;-0.75;89.87
42601;BME280;28229;48.856;9.088;2023-03-03T01:07:25;98154.03;;;-0.86;90.47
42601;BME280;28229;48.856;9.088;2023-03-03T01:09:52;98148.59;;;-0.83;90.85
42601;BME280;28229;48.856;9.088;2023-03-03T01:12:18;98150.25;;;-0.91;91.41
42601;BME280;28229;48.856;9.088;2023-03-03T01:14:44;98142.34;;;-0.90;91.49
42601;BME280;28229;48.856;9.088;2023-03-03T01:17:12;98147.38;;;-0.98;92.14
42601;BME280;28229;48.856;9.088;2023-03-03T01:19:39;98144.53;;;-0.95;92.55
42601;BME280;28229;48.856;9.088;2023-03-03T01:22:05;98154.31;;;-0.89;92.59
42601;BME280;28229;48.856;9.088;2023-03-03T01:24:31;98154.28;;;-0.79;92.66
42601;BME280;28229;48.856;9.088;2023-03-03T01:26:57;98156.22;;;-0.81;93.11
42601;BME280;28229;48.856;9.088;2023-03-03T01:29:23;98154.28;;;-0.79;93.05
42601;BME280;28229;48.856;9.088;2023-03-03T01:31:49;98159.06;;;-0.84;93.46
42601;BME280;28229;48.856;9.088;2023-03-03T01:34:16;98167.66;;;-0.84;93.49
42601;BME280;28229;48.856;9.088;2023-03-03T01:36:42;98158.94;;;-0.83;93.28
42601;BME280;28229;48.856;9.088;2023-03-03T01:39:09;98157.59;;;-0.87;93.15
42601;BME280;28229;48.856;9.088;2023-03-03T01:41:36;98159.50;;;-0.89;93.16
42601;BME280;28229;48.856;9.088;2023-03-03T01:44:02;98164.13;;;-0.92;93.32
42601;BME280;28229;48.856;9.088;2023-03-03T01:49:21;98158.53;;;-0.88;92.30
42601;BME280;28229;48.856;9.088;2023-03-03T01:52:02;98150.78;;;-0.88;91.67
42601;BME280;28229;48.856;9.088;2023-03-03T01:54:41;98151.34;;;-0.94;91.85
42601;BME280;28229;48.856;9.088;2023-03-03T01:57:14;98147.78;;;-0.93;91.40
42601;BME280;28229;48.856;9.088;2023-03-03T01:59:44;98142.22;;;-0.98;91.93
42601;BME280;28229;48.856;9.088;2023-03-03T02:02:13;98138.28;;;-1.02;92.29
42601;BME280;28229;48.856;9.088;2023-03-03T02:04:39;98135.31;;;-0.98;92.44
42601;BME280;28229;48.856;9.088;2023-03-03T02:07:08;98134.50;;;-1.08;92.56
42601;BME280;28229;48.856;9.088;2023-03-03T02:09:44;98125.28;;;-1.10;92.78
42601;BME280;28229;48.856;9.088;2023-03-03T02:12:15;98128.38;;;-0.97;93.30
42601;BME280;28229;48.856;9.088;2023-03-03T02:14:42;98126.91;;;-1.00;94.22
42601;BME280;28229;48.856;9.088;2023-03-03T02:17:08;98127.69;;;-0.99;93.64
42601;BME280;28229;48.856;9.088;2023-03-03T02:19:51;98129.59;;;-1.01;93.02
42601;BME280;28229;48.856;9.088;2023-03-03T02:22:28;98128.53;;;-1.08;93.12
42601;BME280;28229;48.856;9.088;2023-03-03T02:24:59;98128.53;;;-1.08;92.64
42601;BME280;28229;48.856;9.088;2023-03-03T02:27:27;98130.00;;;-1.06;91.84
42601;BME280;28229;48.856;9.088;2023-03-03T02:29:57;98128.81;;;-1.11;91.55
42601;BME280;28229;48.856;9.088;2023-03-03T02:32:23;98127.47;;;-1.16;92.08
42601;BME280;28229;48.856;9.088;2023-03-03T02:34:51;98123.63;;;-1.11;92.19
42601;BME280;28229;48.856;9.088;2023-03-03T02:37:18;98119.31;;;-1.21;92.85
42601;BME280;28229;48.856;9.088;2023-03-03T02:39:45;98123.38;;;-1.18;93.14
42601;BME280;28229;48.856;9.088;2023-03-03T02:44:50;98130.84;;;-1.25;93.22
42601;BME280;28229;48.856;9.088;2023-03-03T02:47:17;98131.41;;;-1.21;92.52
42601;BME280;28229;48.856;9.088;2023-03-03T02:49:43;98138.59;;;-1.25;92.20
42601;BME280;28229;48.856;9.088;2023-03-03T02:52:10;98133.69;;;-1.18;91.88
42601;BME280;28229;48.856;9.088;2023-03-03T02:54:40;98138.84;;;-1.18;91.79
42601;BME280;28229;48.856;9.088;2023-03-03T02:57:06;98138.34;;;-1.31;91.44
42601;BME280;28229;48.856;9.088;2023-03-03T02:59:33;98134.78;;;-1.30;92.00
42601;BME280;28229;48.856;9.088;2023-03-03T03:02:07;98142.97;;;-1.35;92.36
42601;BME280;28229;48.856;9.088;2023-03-03T03:04:34;98137.50;;;-1.32;93.31
42601;BME280;28229;48.856;9.088;2023-03-03T03:07:00;98141.31;;;-1.36;93.54
42601;BME280;28229;48.856;9.088;2023-03-03T03:09:29;98137.94;;;-1.37;93.53
42601;BME280;28229;48.856;9.088;2023-03-03T03:11:55;98142.13;;;-1.36;93.20
42601;BME280;28229;48.856;9.088;2023-03-03T03:14:25;98135.34;;;-1.37;93.04
42601;BME280;28229;48.856;9.088;2023-03-03T03:16:52;98137.13;;;-1.37;93.13
42601;BME280;28229;48.856;9.088;2023-03-03T03:19:19;98136.41;;;-1.39;93.79
42601;BME280;28229;48.856;9.088;2023-03-03T03:21:46;98134.13;;;-1.32;94.18
42601;BME280;28229;48.856;9.088;2023-03-03T03:24:12;98137.78;;;-1.35;94.70
42601;BME280;28229;48.856;9.088;2023-03-03T03:26:43;98142.41;;;-1.29;94.22
42601;BME280;28229;48.856;9.088;2023-03-03T03:29:09;98146.75;;;-1.29;94.35
42601;BME280;28229;48.856;9.088;2023-03-03T03:31:36;98139.41;;;-1.24;94.05
42601;BME280;28229;48.856;9.088;2023-03-03T03:34:03;98148.91;;;-1.25;94.40
42601;BME280;28229;48.856;9.088;2023-03-03T03:36:29;98147.03;;;-1.23;94.55
42601;BME280;28229;48.856;9.088;2023-03-03T03:38:56;98142.66;;;-1.22;94.53
42601;BME280;28229;48.856;9.088;2023-03-03T03:41:22;98141.44;;;-1.18;94.74
42601;BME280;28229;48.856;9.088;2023-03-03T03:43:48;98142.50;;;-1.11;94.24
42601;BME280;28229;48.856;9.088;2023-03-03T03:46:15;98147.53;;;-1.09;94.12
42601;BME280;28229;48.856;9.088;2023-03-03T03:48:41;98147.28;;;-1.06;94.33
42601;BME280;28229;48.856;9.088;2023-03-03T03:51:11;98140.06;;;-1.12;94.73
42601;BME280;28229;48.856;9.088;2023-03-03T03:53:38;98146.19;;;-1.13;95.28
42601;BME280;28229;48.856;9.088;2023-03-03T03:56:05;98142.13;;;-1.06;94.87
42601;BME280;28229;48.856;9.088;2023-03-03T03:58:31;98142.22;;;-0.98;94.66
42601;BME280;28229;48.856;9.088;2023-03-03T04:01:06;98141.84;;;-1.03;94.15
42601;BME280;28229;48.856;9.088;2023-03-03T04:03:35;98133.13;;;-1.02;94.57
42601;BME280;28229;48.856;9.088;2023-03-03T04:06:05;98148.09;;;-0.96;94.73
42601;BME280;28229;48.856;9.088;2023-03-03T04:08:33;98142.91;;;-0.96;94.58
42601;BME280;28229;48.856;9.088;2023-03-03T04:10:59;98140.75;;;-0.91;94.61
42601;BME280;28229;48.856;9.088;2023-03-03T04:13:26;98140.44;;;-0.88;94.64
42601;BME280;28229;48.856;9.088;2023-03-03T04:15:57;98140.44;;;-0.78;94.31
42601;BME280;28229;48.856;9.088;2023-03-03T04:18:23;98138.13;;;-0.81;94.29
42601;BME280;28229;48.856;9.088;2023-03-03T04:20:50;98137.31;;;-0.82;94.66
42601;BME280;28229;48.856;9.088;2023-03-03T04:23:18;98148.41;;;-0.71;94.72
42601;BME280;28229;48.856;9.088;2023-03-03T04:25:48;98148.81;;;-0.66;94.72
42601;BME280;28229;48.856;9.088;2023-03-03T04:28:16;98143.50;;;-0.65;94.59
42601;BME280;28229;48.856;9.088;2023-03-03T04:30:42;98158.34;;;-0.57;94.41
42601;BME280;28229;48.856;9.088;2023-03-03T04:33:09;98151.47;;;-0.48;94.23
42601;BME280;28229;48.856;9.088;2023-03-03T04:35:38;98149.34;;;-0.53;94.19
42601;BME280;28229;48.856;9.088;2023-03-03T04:38:04;98155.84;;;-0.49;94.59
42601;BME280;28229;48.856;9.088;2023-03-03T04:40:31;98164.66;;;-0.42;94.25
42601;BME280;28229;48.856;9.088;2023-03-03T04:42:58;98159.22;;;-0.39;94.21
42601;BME280;28229;48.856;9.088;2023-03-03T04:45:25;98161.91;;;-0.30;93.86
42601;BME280;28229;48.856;9.088;2023-03-03T04:47:51;98176.44;;;-0.29;94.08
42601;BME280;28229;48.856;9.088;2023-03-03T04:50:17;98164.84;;;-0.25;94.07
42601;BME280;28229;48.856;9.088;2023-03-03T04:52:43;98171.81;;;-0.26;93.95
42601;BME280;28229;48.856;9.088;2023-03-03T04:55:11;98165.56;;;-0.23;93.75
42601;BME280;28229;48.856;9.088;2023-03-03T04:57:39;98171.41;;;-0.21;93.32
42601;BME280;28229;48.856;9.088;2023-03-03T05:00:06;98174.38;;;-0.16;92.84
42601;BME280;28229;48.856;9.088;2023-03-03T05:02:32;98173.41;;;-0.15;93.02
42601;BME280;28229;48.856;9.088;2023-03-03T05:04:59;98175.72;;;-0.12;93.21
42601;BME280;28229;48.856;9.088;2023-03-03T05:07:25;98178.53;;;-0.05;93.08
42601;BME280;28229;48.856;9.088;2023-03-03T05:09:52;98176.91;;;-0.06;93.15
42601;BME280;28229;48.856;9.088;2023-03-03T05:12:18;98174.84;;;-0.03;93.33
42601;BME280;28229;48.856;9.088;2023-03-03T05:14:44;98171.31;;;-0.02;93.17
42601;BME280;28229;48.856;9.088;2023-03-03T05:17:10;98167.59;;;0.01;93.14
42601;BME280;28229;48.856;9.088;2023-03-03T05:19:36;98168.59;;;0.00;93.27
42601;BME280;28229;48.856;9.088;2023-03-03T05:22:03;98176.56;;;0.07;92.55
42601;BME280;28229;48.856;9.088;2023-03-03T05:24:29;98178.19;;;0.08;92.51
42601;BME280;28229;48.856;9.088;2023-03-03T05:26:55;98176.00;;;0.13;92.61
42601;BME280;28229;48.856;9.088;2023-03-03T05:29:21;98181.84;;;0.15;92.55
42601;BME280;28229;48.856;9.088;2023-03-03T05:31:47;98180.16;;;0.24;92.07
42601;BME280;28229;48.856;9.088;2023-03-03T05:34:14;98181.34;;;0.29;92.17
42601;BME280;28229;48.856;9.088;2023-03-03T05:36:40;98180.69;;;0.27;92.10
42601;BME280;28229;48.856;9.088;2023-03-03T05:39:06;98189.78;;;0.31;92.14
42601;BME280;28229;48.856;9.088;2023-03-03T05:41:32;98190.06;;;0.28;92.18
42601;BME280;28229;48.856;9.088;2023-03-03T05:44:02;98197.13;;;0.36;92.01
42601;BME280;28229;48.856;9.088;2023-03-03T05:46:29;98203.63;;;0.40;91.83
42601;BME280;28229;48.856;9.088;2023-03-03T05:48:55;98197.63;;;0.40;91.84
42601;BME280;28229;48.856;9.088;2023-03-03T05:51:21;98199.84;;;0.34;91.64
42601;BME280;28229;48.856;9.088;2023-03-03T05:53:47;98203.75;;;0.38;91.74
42601;BME280;28229;48.856;9.088;2023-03-03T05:56:13;98206.44;;;0.47;91.58
42601;BME280;28229;48.856;9.088;2023-03-03T05:58:40;98203.84;;;0.47;91.65
42601;BME280;28229;48.856;9.088;2023-03-03T06:01:06;98207.09;;;0.49;91.28
42601;BME280;28229;48.856;9.088;2023-03-03T06:03:32;98204.53;;;0.49;91.16
42601;BME280;28229;48.856;9.088;2023-03-03T06:06:05;98207.91;;;0.49;91.51
42601;BME280;28229;48.856;9.088;2023-03-03T06:08:42;98216.88;;;0.55;91.35
42601;BME280;28229;48.856;9.088;2023-03-03T06:11:16;98211.53;;;0.56;90.90
42601;BME280;28229;48.856;9.088;2023-03-03T06:13:53;98214.59;;;0.52;91.02
42601;BME280;28229;48.856;9.088;2023-03-03T06:16:50;98221.75;;;0.58;90.68
42601;BME280;28229;48.856;9.088;2023-03-03T06:19:24;98222.13;;;0.63;90.74
42601;BME280;28229;48.856;9.088;2023-03-03T06:22:06;98215.69;;;0.67;90.44
42601;BME280;28229;48.856;9.088;2023-03-03T06:24:57;98217.03;;;0.71;90.22
42601;BME280;28229;48.856;9.088;2023-03-03T06:27:26;98225.63;;;0.90;94.86
42601;BME280;28229;48.856;9.088;2023-03-03T06:29:58;98226.41;;;1.26;100.00
42601;BME280;28229;48.856;9.088;2023-03-03T06:32:31;98224.28;;;1.48;96.58
42601;BME280;28229;48.856;9.088;2023-03-03T06:34:57;98226.13;;;1.56;91.76
42601;BME280;28229;48.856;9.088;2023-03-03T06:37:24;98233.00;;;1.65;88.90
42601;BME280;28229;48.856;9.088;2023-03-03T06:39:50;98238.94;;;1.57;87.30
42601;BME280;28229;48.856;9.088;2023-03-03T06:42:17;98240.34;;;1.51;86.71
42601;BME280;28229;48.856;9.088;2023-03-03T06:44:44;98239.50;;;1.43;86.41
42601;BME280;28229;48.856;9.088;2023-03-03T06:47:16;98242.69;;;1.37;87.00
42601;BME280;28229;48.856;9.088;2023-03-03T06:49:47;98247.66;;;1.30;87.16
42601;BME280;28229;48.856;9.088;2023-03-03T06:52:29;98242.78;;;1.27;87.78
42601;BME280;28229;48.856;9.088;2023-03-03T06:55:12;98252.63;;;1.23;87.61
42601;BME280;28229;48.856;9.088;2023-03-03T06:57:43;98247.97;;;1.27;87.21
42601;BME280;28229;48.856;9.088;2023-03-03T07:00:24;98255.38;;;1.22;87.10
42601;BME280;28229;48.856;9.088;2023-03-03T07:02:59;98255.09;;;1.25;86.63
42601;BME280;28229;48.856;9.088;2023-03-03T07:05:28;98250.03;;;1.23;85.63
42601;BME280;28229;48.856;9.088;2023-03-03T07:08:15;98264.09;;;1.21;84.92
42601;BME280;28229;48.856;9.088;2023-03-03T07:10:42;98261.81;;;1.18;84.39
42601;BME280;28229;48.856;9.088;2023-03-03T07:13:35;98264.38;;;1.18;84.94
42601;BME280;28229;48.856;9.088;2023-03-03T07:16:23;98261.13;;;1.16;84.70
42601;BME280;28229;48.856;9.088;2023-03-03T07:19:00;98265.38;;;1.17;85.21
42601;BME280;28229;48.856;9.088;2023-03-03T07:21:34;98266.13;;;1.27;83.69
42601;BME280;28229;48.856;9.088;2023-03-03T07:26:45;98259.94;;;1.28;82.05
42601;BME280;28229;48.856;9.088;2023-03-03T07:29:21;98260.03;;;1.36;81.67
42601;BME280;28229;48.856;9.088;2023-03-03T07:31:49;98269.78;;;1.42;80.92
42601;BME280;28229;48.856;9.088;2023-03-03T07:37:11;98274.31;;;1.40;80.30
42601;BME280;28229;48.856;9.088;2023-03-03T07:39:44;98269.47;;;1.45;80.50
42601;BME280;28229;48.856;9.088;2023-03-03T07:42:18;98273.09;;;1.52;79.83
42601;BME280;28229;48.856;9.088;2023-03-03T07:44:55;98273.63;;;1.56;79.67
42601;BME280;28229;48.856;9.088;2023-03-03T07:47:27;98276.72;;;1.60;79.68
42601;BME280;28229;48.856;9.088;2023-03-03T07:50:43;98281.34;;;1.74;79.10
42601;BME280;28229;48.856;9.088;2023-03-03T07:53:28;98287.66;;;1.71;77.99
42601;BME280;28229;48.856;9.088;2023-03-03T07:56:26;98288.47;;;1.72;77.79
42601;BME280;28229;48.856;9.088;2023-03-03T07:59:33;98287.53;;;1.73;78.22
42601;BME280;28229;48.856;9.088;2023-03-03T08:03:09;98294.69;;;1.79;77.00
42601;BME280;28229;48.856;9.088;2023-03-03T08:05:46;98296.31;;;1.80;75.78
42601;BME280;28229;48.856;9.088;2023-03-03T08:11:00;98301.13;;;2.01;74.90
42601;BME280;28229;48.856;9.088;2023-03-03T08:13:40;98306.59;;;1.90;74.43
42601;BME280;28229;48.856;9.088;2023-03-03T08:18:45;98295.84;;;2.11;74.39
42601;BME280;28229;48.856;9.088;2023-03-03T08:21:24;98305.00;;;2.23;74.08
42601;BME280;28229;48.856;9.088;2023-03-03T08:23:57;98298.25;;;2.39;73.28
42601;BME280;28229;48.856;9.088;2023-03-03T08:26:46;98300.03;;;2.38;71.58
42601;BME280;28229;48.856;9.088;2023-03-03T08:29:37;98296.34;;;2.49;71.36
42601;BME280;28229;48.856;9.088;2023-03-03T08:32:08;98294.94;;;2.63;70.22
42601;BME280;28229;48.856;9.088;2023-03-03T08:34:56;98302.13;;;2.77;69.89
42601;BME280;28229;48.856;9.088;2023-03-03T08:37:25;98295.81;;;2.88;69.05
42601;BME280;28229;48.856;9.088;2023-03-03T08:40:10;98291.59;;;2.95;68.44
42601;BME280;28229;48.856;9.088;2023-03-03T08:42:47;98288.72;;;3.23;67.20
42601;BME280;28229;48.856;9.088;2023-03-03T08:45:24;98290.69;;;3.54;66.02
42601;BME280;28229;48.856;9.088;2023-03-03T08:47:58;98292.63;;;3.68;64.65
42601;BME280;28229;48.856;9.088;2023-03-03T08:50:28;98290.34;;;3.73;64.34
42601;BME280;28229;48.856;9.088;2023-03-03T08:52:55;98294.88;;;3.88;64.65
42601;BME280;28229;48.856;9.088;2023-03-03T08:55:36;98291.28;;;4.05;63.08
42601;BME280;28229;48.856;9.088;2023-03-03T08:58:06;98295.47;;;4.23;62.43
42601;BME280;28229;48.856;9.088;2023-03-03T09:00:34;98305.75;;;4.55;67.53
42601;BME280;28229;48.856;9.088;2023-03-03T09:03:01;98311.25;;;4.69;62.25
42601;BME280;28229;48.856;9.088;2023-03-03T09:05:34;98323.41;;;4.76;60.88
42601;BME280;28229;48.856;9.088;2023-03-03T09:08:01;98319.16;;;4.44;60.85
42601;BME280;28229;48.856;9.088;2023-03-03T09:10:28;98320.28;;;4.42;61.80
42601;BME280;28229;48.856;9.088;2023-03-03T09:13:17;98321.78;;;4.28;61.80
42601;BME280;28229;48.856;9.088;2023-03-03T09:15:46;98327.31;;;4.41;62.15
42601;BME280;28229;48.856;9.088;2023-03-03T09:18:21;98329.91;;;4.33;61.61
42601;BME280;28229;48.856;9.088;2023-03-03T09:20:53;98332.69;;;4.39;64.12
42601;BME280;28229;48.856;9.088;2023-03-03T09:23:57;98316.50;;;4.52;62.49
42601;BME280;28229;48.856;9.088;2023-03-03T09:26:47;98327.06;;;4.67;62.72
42601;BME280;28229;48.856;9.088;2023-03-03T09:29:27;98340.31;;;4.89;61.56
42601;BME280;28229;48.856;9.088;2023-03-03T09:31:59;98337.34;;;5.23;62.35
42601;BME280;28229;48.856;9.088;2023-03-03T09:37:19;98334.84;;;5.53;60.13
42601;BME280;28229;48.856;9.088;2023-03-03T09:39:48;98332.44;;;5.66;60.75
42601;BME280;28229;48.856;9.088;2023-03-03T09:42:45;98327.38;;;5.88;59.38
42601;BME280;28229;48.856;9.088;2023-03-03T09:45:34;98331.16;;;6.23;58.97
42601;BME280;28229;48.856;9.088;2023-03-03T09:48:15;98323.06;;;6.33;59.20
42601;BME280;28229;48.856;9.088;2023-03-03T09:53:57;98327.06;;;6.80;55.94
42601;BME280;28229;48.856;9.088;2023-03-03T09:56:33;98325.69;;;6.99;55.97
42601;BME280;28229;48.856;9.088;2023-03-03T10:01:50;98333.13;;;7.17;57.09
42601;BME280;28229;48.856;9.088;2023-03-03T10:04:41;98335.47;;;7.12;56.55
42601;BME280;28229;48.856;9.088;2023-03-03T10:07:21;98336.28;;;7.13;56.13
42601;BME280;28229;48.856;9.088;2023-03-03T10:18:49;98338.38;;;7.39;55.42
42601;BME280;28229;48.856;9.088;2023-03-03T10:21:29;98340.25;;;7.45;55.71
42601;BME280;28229;48.856;9.088;2023-03-03T10:24:14;98334.63;;;7.48;54.51
42601;BME280;28229;48.856;9.088;2023-03-03T10:27:23;98337.38;;;7.61;54.96
42601;BME280;28229;48.856;9.088;2023-03-03T10:32:57;98336.34;;;7.84;52.48
42601;BME280;28229;48.856;9.088;2023-03-03T10:38:48;98341.81;;;7.89;53.56
42601;BME280;28229;48.856;9.088;2023-03-03T10:44:14;98339.44;;;7.94;52.27
42601;BME280;28229;48.856;9.088;2023-03-03T10:49:26;98333.47;;;8.35;50.89
42601;BME280;28229;48.856;9.088;2023-03-03T10:52:26;98327.72;;;8.47;50.27
42601;BME280;28229;48.856;9.088;2023-03-03T10:57:49;98334.97;;;8.86;50.21
42601;BME280;28229;48.856;9.088;2023-03-03T11:00:23;98338.88;;;9.10;49.13
42601;BME280;28229;48.856;9.088;2023-03-03T11:05:39;98321.19;;;9.79;48.36
42601;BME280;28229;48.856;9.088;2023-03-03T11:08:16;98332.53;;;9.86;48.39
42601;BME280;28229;48.856;9.088;2023-03-03T11:14:12;98331.31;;;10.09;46.25
42601;BME280;28229;48.856;9.088;2023-03-03T11:16:40;98333.31;;;9.94;46.54
42601;BME280;28229;48.856;9.088;2023-03-03T11:24:43;98344.22;;;9.44;45.76
42601;BME280;28229;48.856;9.088;2023-03-03T11:27:21;98345.78;;;9.25;46.33
42601;BME280;28229;48.856;9.088;2023-03-03T11:32:51;98342.25;;;8.98;47.35
42601;BME280;28229;48.856;9.088;2023-03-03T11:35:38;98332.38;;;9.00;47.54
42601;BME280;28229;48.856;9.088;2023-03-03T11:39:07;98338.84;;;8.97;46.29
42601;BME280;28229;48.856;9.088;2023-03-03T11:44:19;98326.78;;;8.61;47.56
42601;BME280;28229;48.856;9.088;2023-03-03T11:47:02;98324.50;;;8.51;48.03
42601;BME280;28229;48.856;9.088;2023-03-03T11:49:40;98325.38;;;8.65;47.68
42601;BME280;28229;48.856;9.088;2023-03-03T11:54:53;98323.41;;;8.74;47.19
42601;BME280;28229;48.856;9.088;2023-03-03T11:57:41;98318.41;;;8.44;47.89
42601;BME280;28229;48.856;9.088;2023-03-03T12:00:21;98315.28;;;8.62;47.96
42601;BME280;28229;48.856;9.088;2023-03-03T12:16:57;98299.72;;;9.15;47.08
42601;BME280;28229;48.856;9.088;2023-03-03T12:19:47;98299.94;;;9.21;47.12
42601;BME280;28229;48.856;9.088;2023-03-03T12:31:18;98291.28;;;9.60;44.44
42601;BME280;28229;48.856;9.088;2023-03-03T12:33:53;98295.91;;;9.51;44.54
42601;BME280;28229;48.856;9.088;2023-03-03T12:36:34;98293.50;;;9.43;44.76
42601;BME280;28229;48.856;9.088;2023-03-03T12:39:12;98280.75;;;9.53;44.38
42601;BME280;28229;48.856;9.088;2023-03-03T12:47:24;98281.91;;;10.38;44.09
42601;BME280;28229;48.856;9.088;2023-03-03T12:52:57;98275.72;;;11.09;42.91
42601;BME280;28229;48.856;9.088;2023-03-03T12:56:03;98275.09;;;11.39;41.96
42601;BME280;28229;48.856;9.088;2023-03-03T12:58:59;98274.53;;;11.62;41.17
42601;BME280;28229;48.856;9.088;2023-03-03T13:04:28;98271.03;;;11.68;40.67
42601;BME280;28229;48.856;9.088;2023-03-03T13:07:14;98274.94;;;11.91;40.74
42601;BME280;28229;48.856;9.088;2023-03-03T13:12:52;98270.13;;;12.25;38.89
42601;BME280;28229;48.856;9.088;2023-03-03T13:15:27;98270.72;;;12.27;40.34
42601;BME280;28229;48.856;9.088;2023-03-03T13:21:00;98277.44;;;12.78;38.95
42601;BME280;28229;48.856;9.088;2023-03-03T13:23:38;98268.59;;;12.84;38.75
42601;BME280;28229;48.856;9.088;2023-03-03T13:31:32;98273.47;;;12.69;38.21
42601;BME280;28229;48.856;9.088;2023-03-03T13:34:00;98268.03;;;12.64;38.58
42601;BME280;28229;48.856;9.088;2023-03-03T13:36:34;98271.03;;;12.86;37.93
42601;BME280;28229;48.856;9.088;2023-03-03T13:39:25;98270.53;;;13.07;38.08
42601;BME280;28229;48.856;9.088;2023-03-03T13:42:07;98258.94;;;13.08;37.92
42601;BME280;28229;48.856;9.088;2023-03-03T13:44:41;98260.09;;;12.82;38.64
42601;BME280;28229;48.856;9.088;2023-03-03T13:47:23;98264.38;;;13.25;42.23
42601;BME280;28229;48.856;9.088;2023-03-03T13:52:59;98265.06;;;13.86;38.09
42601;BME280;28229;48.856;9.088;2023-03-03T13:55:42;98258.50;;;13.89;37.70
42601;BME280;28229;48.856;9.088;2023-03-03T13:58:24;98253.44;;;13.76;37.39
42601;BME280;28229;48.856;9.088;2023-03-03T14:01:04;98255.69;;;13.37;38.20
42601;BME280;28229;48.856;9.088;2023-03-03T14:06:22;98248.84;;;13.59;37.93
42601;BME280;28229;48.856;9.088;2023-03-03T14:09:07;98251.72;;;13.69;37.66
42601;BME280;28229;48.856;9.088;2023-03-03T14:11:51;98242.88;;;13.99;37.61
42601;BME280;28229;48.856;9.088;2023-03-03T14:17:49;98237.53;;;14.23;35.61
42601;BME280;28229;48.856;9.088;2023-03-03T14:20:23;98235.72;;;13.88;37.82
42601;BME280;28229;48.856;9.088;2023-03-03T14:22:57;98230.91;;;13.97;37.12
42601;BME280;28229;48.856;9.088;2023-03-03T14:25:24;98230.56;;;13.81;37.46
42601;BME280;28229;48.856;9.088;2023-03-03T14:30:30;98238.50;;;13.46;37.77
42601;BME280;28229;48.856;9.088;2023-03-03T14:33:04;98242.22;;;13.26;37.25
42601;BME280;28229;48.856;9.088;2023-03-03T14:35:39;98235.16;;;13.39;38.08
42601;BME280;28229;48.856;9.088;2023-03-03T14:38:17;98241.81;;;13.65;38.90
42601;BME280;28229;48.856;9.088;2023-03-03T14:40:45;98232.28;;;13.52;37.09
42601;BME280;28229;48.856;9.088;2023-03-03T14:43:36;98236.63;;;13.35;37.84
42601;BME280;28229;48.856;9.088;2023-03-03T14:46:31;98232.63;;;13.02;37.77
42601;BME280;28229;48.856;9.088;2023-03-03T14:49:00;98231.22;;;12.99;38.12
42601;BME280;28229;48.856;9.088;2023-03-03T14:51:46;98235.44;;;12.88;37.87
42601;BME280;28229;48.856;9.088;2023-03-03T14:54:23;98224.75;;;12.83;38.32
42601;BME280;28229;48.856;9.088;2023-03-03T14:59:23;98231.50;;;12.49;38.81
42601;BME280;28229;48.856;9.088;2023-03-03T15:04:27;98224.97;;;12.33;39.58
42601;BME280;28229;48.856;9.088;2023-03-03T15:06:56;98223.81;;;12.29;39.36
42601;BME280;28229;48.856;9.088;2023-03-03T15:09:28;98220.03;;;12.25;39.47
42601;BME280;28229;48.856;9.088;2023-03-03T15:11:59;98225.28;;;12.06;39.42
42601;BME280;28229;48.856;9.088;2023-03-03T15:14:37;98224.41;;;12.12;39.87
42601;BME280;28229;48.856;9.088;2023-03-03T15:17:24;98217.75;;;11.85;40.12
42601;BME280;28229;48.856;9.088;2023-03-03T15:23:17;98217.00;;;11.59;40.86
42601;BME280;28229;48.856;9.088;2023-03-03T15:31:33;98210.69;;;11.10;41.44
42601;BME280;28229;48.856;9.088;2023-03-03T15:34:25;98210.94;;;11.01;41.53
42601;BME280;28229;48.856;9.088;2023-03-03T15:37:08;98210.34;;;10.67;42.53
42601;BME280;28229;48.856;9.088;2023-03-03T15:45:30;98208.63;;;10.48;42.91
42601;BME280;28229;48.856;9.088;2023-03-03T15:51:05;98207.97;;;9.94;44.48
42601;BME280;28229;48.856;9.088;2023-03-03T15:54:01;98210.59;;;10.01;44.53
42601;BME280;28229;48.856;9.088;2023-03-03T15:56:43;98210.38;;;10.02;44.19
42601;BME280;28229;48.856;9.088;2023-03-03T16:02:17;98222.94;;;9.94;44.50
42601;BME280;28229;48.856;9.088;2023-03-03T16:04:53;98219.31;;;9.81;45.14
42601;BME280;28229;48.856;9.088;2023-03-03T16:23:59;98235.72;;;9.50;46.22
42601;BME280;28229;48.856;9.088;2023-03-03T16:26:35;98233.28;;;9.55;46.11
42601;BME280;28229;48.856;9.088;2023-03-03T16:31:49;98235.13;;;9.48;46.46
42601;BME280;28229;48.856;9.088;2023-03-03T16:34:29;98239.56;;;9.47;46.57
42601;BME280;28229;48.856;9.088;2023-03-03T16:39:41;98251.25;;;9.25;46.82